Terminal Aerodrome Forecast
Issued by NWS

Home | Current Version | Previous Version | Graphics & Text | Print | Product List | Glossary On
Versions: 1 2 3 4 5 6 7 8 9 10 11 12 13 14 15 16 17 18 19 20
000
FTUS42 KMHX 191700 RRA
TAFOAJ
TAF
KOAJ 191749Z 1918/2018 03007KT P6SM BKN035
     FM200900 00000KT 2SM BR BKN004
     FM201300 VRB03KT P6SM SCT035
      AMD LTD TO CLD VIS AND WIND=

USA.gov is the U.S. government's official web portal to all federal, state and local government web resources and services.